Time;durP1;ratioP1;P1;durP2;ratioP2;P2;SDS_P1;SDS_P2;PMS_P1;PMS_P2;Temp;Humidity;BMP_temperature;BMP_pressure;BME280_temperature;BME280_humidity;BME280_pressure;Samples;Min_cycle;Max_cycle;Signal;HPM_P1;HPM_P2
2023/03/09 00:01:31;;;;;;;4.20;0.50;;;27.00;57.50;;;;;;5020188;28;20060;-62
2023/03/09 00:04:00;;;;;;;4.57;0.63;;;27.20;56.90;;;;;;5024168;28;20073;-63
2023/03/09 00:06:28;;;;;;;3.75;1.00;;;27.20;56.70;;;;;;5026163;28;20023;-63
2023/03/09 00:08:56;;;;;;;4.00;0.43;;;27.10;54.60;;;;;;5030537;28;20032;-67
2023/03/09 00:11:24;;;;;;;1.45;0.60;;;27.00;57.10;;;;;;5022130;28;20112;-72
2023/03/09 00:13:52;;;;;;;1.98;0.65;;;27.20;57.10;;;;;;5012381;28;20498;-72
2023/03/09 00:16:25;;;;;;;1.30;0.40;;;27.40;55.90;;;;;;5031681;28;20381;-65
2023/03/09 00:18:56;;;;;;;2.92;0.52;;;27.40;56.00;;;;;;5012251;28;20037;-65
2023/03/09 00:21:36;;;;;;;1.48;0.73;;;27.60;54.70;;;;;;5018974;28;20458;-65
2023/03/09 00:24:13;;;;;;;2.88;0.63;;;27.50;53.00;;;;;;5031735;28;20128;-66
2023/03/09 00:26:43;;;;;;;55.72;13.18;;;27.60;54.20;;;;;;5023914;28;20079;-66
2023/03/09 00:29:12;;;;;;;30.10;6.72;;;27.70;56.90;;;;;;5028635;28;20029;-67
2023/03/09 00:31:40;;;;;;;3.60;1.15;;;27.60;58.90;;;;;;5031678;28;20043;-64
2023/03/09 00:34:09;;;;;;;2.60;0.80;;;27.80;57.70;;;;;;5023736;28;20029;-66
2023/03/09 00:36:36;;;;;;;2.30;0.77;;;28.00;57.60;;;;;;5024767;28;20053;-64
2023/03/09 00:39:04;;;;;;;2.13;0.50;;;28.00;56.50;;;;;;5040247;28;20041;-66
2023/03/09 00:41:32;;;;;;;2.30;0.50;;;28.00;52.10;;;;;;5029045;28;20013;-64
2023/03/09 00:44:02;;;;;;;2.15;0.52;;;27.80;52.70;;;;;;5028239;28;20397;-65
2023/03/09 00:46:31;;;;;;;1.17;0.50;;;27.70;54.20;;;;;;5029464;28;20071;-64
2023/03/09 00:48:58;;;;;;;2.25;0.60;;;27.70;54.00;;;;;;5040663;28;20025;-62
2023/03/09 00:51:27;;;;;;;2.00;0.50;;;27.50;51.00;;;;;;5025779;28;20028;-63
2023/03/09 00:53:58;;;;;;;1.38;0.60;;;27.30;51.90;;;;;;5027340;28;20071;-63
2023/03/09 00:56:29;;;;;;;5.47;0.98;;;27.40;52.10;;;;;;5024794;28;20021;-63
2023/03/09 00:58:58;;;;;;;1.27;0.80;;;27.50;53.40;;;;;;5029752;28;20029;-63
2023/03/09 01:01:26;;;;;;;10.55;2.53;;;27.60;53.50;;;;;;5034076;28;20025;-62
2023/03/09 01:03:53;;;;;;;2.17;1.00;;;27.90;56.50;;;;;;5035273;28;20042;-64
2023/03/09 01:06:21;;;;;;;8.30;2.33;;;28.20;55.30;;;;;;5025893;28;20128;-62
2023/03/09 01:08:49;;;;;;;28.88;8.32;;;28.40;54.50;;;;;;5018392;28;20072;-63
2023/03/09 01:11:20;;;;;;;5.55;1.52;;;28.70;56.90;;;;;;5022850;28;20061;-63
2023/03/09 01:13:47;;;;;;;4.45;0.90;;;29.00;55.80;;;;;;5025653;28;20029;-65
2023/03/09 01:16:15;;;;;;;3.05;0.70;;;29.10;57.90;;;;;;5028713;28;20025;-64
2023/03/09 01:18:42;;;;;;;3.42;0.47;;;29.20;54.40;;;;;;5018860;28;20121;-65
2023/03/09 01:21:11;;;;;;;1.70;0.38;;;29.10;50.40;;;;;;5038077;28;20040;-64
2023/03/09 01:23:40;;;;;;;4.65;0.57;;;29.10;52.80;;;;;;5025764;28;20414;-63
2023/03/09 01:26:08;;;;;;;0.88;0.30;;;29.10;49.70;;;;;;5027818;28;20080;-64
2023/03/09 01:28:35;;;;;;;2.20;0.45;;;29.10;47.70;;;;;;5024367;28;20167;-63
2023/03/09 01:31:14;;;;;;;1.25;0.50;;;28.70;47.60;;;;;;5036501;28;20693;-62
2023/03/09 01:33:42;;;;;;;2.05;0.57;;;28.20;46.90;;;;;;5018785;28;20033;-63
2023/03/09 01:36:15;;;;;;;1.92;0.43;;;28.10;51.10;;;;;;5028607;28;20482;-63
2023/03/09 01:38:43;;;;;;;3.47;0.60;;;28.50;52.50;;;;;;5030614;28;20228;-64
2023/03/09 01:41:12;;;;;;;3.17;1.23;;;28.80;49.80;;;;;;5027654;28;20021;-64
2023/03/09 01:43:45;;;;;;;4.47;1.00;;;28.80;47.90;;;;;;5044511;28;20029;-63
2023/03/09 01:46:21;;;;;;;9.25;1.20;;;28.60;49.30;;;;;;5023912;28;20109;-63
2023/03/09 01:48:59;;;;;;;6.07;1.42;;;28.70;50.50;;;;;;5027306;28;20032;-63
2023/03/09 01:51:50;;;;;;;3.05;0.60;;;28.90;49.50;;;;;;5028038;28;20108;-63
2023/03/09 01:54:27;;;;;;;7.15;0.60;;;29.00;49.80;;;;;;5028328;28;20125;-63
2023/03/09 01:56:59;;;;;;;13.23;1.60;;;29.10;48.60;;;;;;5018101;28;20026;-64
2023/03/09 01:59:29;;;;;;;1.73;0.50;;;29.00;48.10;;;;;;5037860;28;20549;-62
2023/03/09 02:01:56;;;;;;;5.97;0.80;;;29.00;46.40;;;;;;5021391;28;20033;-63
2023/03/09 02:04:31;;;;;;;3.40;0.60;;;29.00;45.80;;;;;;5037126;28;20060;-62
2023/03/09 02:06:59;;;;;;;1.85;0.50;;;29.00;46.20;;;;;;5019179;28;20029;-63
2023/03/09 02:09:42;;;;;;;0.98;0.40;;;29.20;47.50;;;;;;5035391;28;20027;-64
2023/03/09 02:12:13;;;;;;;0.90;0.40;;;29.40;48.50;;;;;;5023630;28;20033;-64
2023/03/09 02:14:41;;;;;;;1.98;0.35;;;29.60;42.90;;;;;;5030995;28;20022;-63
2023/03/09 02:17:12;;;;;;;2.17;0.43;;;29.60;42.50;;;;;;5026804;28;20021;-64
2023/03/09 02:19:57;;;;;;;1.23;0.38;;;29.40;45.70;;;;;;5040499;28;20037;-63
2023/03/09 02:22:25;;;;;;;3.72;0.82;;;29.60;45.40;;;;;;5029499;28;20029;-64
2023/03/09 02:25:19;;;;;;;2.35;0.40;;;29.80;47.40;;;;;;5039275;28;20021;-63
2023/03/09 02:27:47;;;;;;;2.88;0.65;;;29.90;44.30;;;;;;5015941;28;20030;-64
2023/03/09 02:30:15;;;;;;;3.20;0.50;;;29.70;42.70;;;;;;5027830;28;20026;-63
2023/03/09 02:32:42;;;;;;;2.88;0.52;;;29.90;45.00;;;;;;5029522;28;20052;-64
2023/03/09 02:35:10;;;;;;;2.70;0.50;;;30.10;47.20;;;;;;5033103;28;20513;-63
2023/03/09 02:37:39;;;;;;;2.30;0.80;;;30.30;43.40;;;;;;5032017;28;20026;-63
2023/03/09 02:40:29;;;;;;;2.72;0.40;;;30.50;45.90;;;;;;5022636;28;20022;-65
2023/03/09 02:42:58;;;;;;;1.88;0.45;;;30.40;43.20;;;;;;5018110;28;20305;-64
2023/03/09 02:45:26;;;;;;;6.05;0.93;;;30.20;42.70;;;;;;5030200;28;20056;-62
2023/03/09 02:47:54;;;;;;;1.92;0.60;;;30.10;44.10;;;;;;5028690;28;20060;-64
2023/03/09 02:50:22;;;;;;;0.93;0.43;;;30.00;42.90;;;;;;5026367;28;20022;-64
2023/03/09 02:52:49;;;;;;;1.33;0.40;;;30.00;44.70;;;;;;5017363;28;20077;-64
2023/03/09 02:55:17;;;;;;;1.25;0.40;;;30.00;46.50;;;;;;5029956;28;20068;-64
2023/03/09 02:57:44;;;;;;;0.80;0.40;;;30.00;45.00;;;;;;5036444;28;20032;-61
2023/03/09 03:00:14;;;;;;;0.77;0.30;;;30.10;45.80;;;;;;5037872;28;20036;-64
2023/03/09 03:02:41;;;;;;;1.25;0.47;;;30.10;44.30;;;;;;5034152;28;20022;-64
2023/03/09 03:05:09;;;;;;;1.38;0.40;;;30.50;44.10;;;;;;5041500;28;20046;-64
2023/03/09 03:07:37;;;;;;;3.72;0.60;;;30.50;45.20;;;;;;5027455;28;20025;-64
2023/03/09 03:10:04;;;;;;;6.43;0.98;;;30.60;43.80;;;;;;5021596;28;20026;-64
2023/03/09 03:12:32;;;;;;;1.60;0.50;;;30.50;44.70;;;;;;5025374;28;20029;-65
2023/03/09 03:14:59;;;;;;;2.10;0.50;;;30.60;41.50;;;;;;5046711;28;20033;-65
2023/03/09 03:17:27;;;;;;;5.40;1.13;;;30.70;43.40;;;;;;5018391;28;20549;-64
2023/03/09 03:19:54;;;;;;;2.83;0.40;;;30.90;45.00;;;;;;5045860;28;20029;-65
2023/03/09 03:22:22;;;;;;;3.45;0.80;;;30.80;43.90;;;;;;5027595;28;20040;-64
2023/03/09 03:24:49;;;;;;;4.45;0.65;;;30.70;41.80;;;;;;5032602;28;20100;-64
2023/03/09 03:27:17;;;;;;;0.88;0.35;;;30.40;41.00;;;;;;5033560;28;20108;-64
2023/03/09 03:29:45;;;;;;;8.38;0.60;;;29.90;43.00;;;;;;5037928;28;20037;-66
2023/03/09 03:32:13;;;;;;;2.47;0.80;;;30.00;43.00;;;;;;5022947;28;20024;-65
2023/03/09 03:34:40;;;;;;;5.07;0.80;;;30.10;44.40;;;;;;5037754;28;20032;-64
2023/03/09 03:37:08;;;;;;;2.90;0.70;;;30.40;44.10;;;;;;5028479;28;20025;-65
2023/03/09 03:39:35;;;;;;;3.15;0.75;;;30.50;43.40;;;;;;5040776;28;20037;-65
2023/03/09 03:42:03;;;;;;;2.00;0.50;;;30.40;42.50;;;;;;5022750;28;20101;-64
2023/03/09 03:44:30;;;;;;;2.47;0.45;;;30.50;43.10;;;;;;5016593;28;20026;-65
2023/03/09 03:46:58;;;;;;;3.00;0.38;;;30.50;43.10;;;;;;5020516;28;20394;-65
2023/03/09 03:49:25;;;;;;;2.45;0.50;;;30.50;40.80;;;;;;5032135;28;20421;-65
2023/03/09 03:51:53;;;;;;;1.70;0.30;;;30.50;43.30;;;;;;5023719;28;20053;-66
2023/03/09 03:54:20;;;;;;;1.77;0.30;;;30.50;40.70;;;;;;5027194;28;20013;-65
2023/03/09 03:56:47;;;;;;;1.38;0.60;;;30.40;42.40;;;;;;5041401;28;20436;-65
2023/03/09 03:59:15;;;;;;;2.13;0.60;;;30.30;44.20;;;;;;5029612;28;20030;-65
2023/03/09 04:01:42;;;;;;;1.52;0.60;;;30.50;44.20;;;;;;5023627;28;20850;-62
2023/03/09 04:04:10;;;;;;;1.45;0.40;;;30.60;43.00;;;;;;5033299;28;20116;-64
2023/03/09 04:06:37;;;;;;;0.95;0.30;;;30.50;41.80;;;;;;5030259;28;20018;-66
2023/03/09 04:09:05;;;;;;;1.27;0.45;;;30.50;42.50;;;;;;5026575;28;20032;-64
2023/03/09 04:11:32;;;;;;;1.65;0.40;;;30.50;42.60;;;;;;5030756;28;20646;-64
2023/03/09 04:14:01;;;;;;;1.60;0.60;;;30.50;41.70;;;;;;5031859;28;20029;-64
2023/03/09 04:16:28;;;;;;;2.42;0.43;;;30.40;42.50;;;;;;5028540;28;20037;-64
2023/03/09 04:18:56;;;;;;;2.20;0.40;;;30.50;42.30;;;;;;5035319;28;20033;-64
2023/03/09 04:21:23;;;;;;;4.18;0.60;;;30.70;42.90;;;;;;5023067;28;20048;-65
2023/03/09 04:23:51;;;;;;;1.98;0.40;;;30.60;42.10;;;;;;5036091;28;20031;-64
2023/03/09 04:26:18;;;;;;;2.97;0.30;;;30.60;42.50;;;;;;5039411;28;20066;-67
2023/03/09 04:28:46;;;;;;;3.08;0.80;;;30.60;41.10;;;;;;5030657;28;20037;-65
2023/03/09 04:31:13;;;;;;;1.85;0.60;;;30.50;41.80;;;;;;5032644;28;20029;-65
2023/03/09 04:33:43;;;;;;;2.13;0.60;;;30.30;40.30;;;;;;5042646;28;20025;-65
2023/03/09 04:36:11;;;;;;;5.45;1.10;;;30.30;40.80;;;;;;5030926;28;20049;-66
2023/03/09 04:38:39;;;;;;;4.35;0.60;;;30.30;40.70;;;;;;5029347;28;20048;-66
2023/03/09 04:41:07;;;;;;;3.15;0.40;;;29.80;40.50;;;;;;5029574;28;20745;-66
2023/03/09 04:43:35;;;;;;;0.93;0.28;;;29.30;40.50;;;;;;5025538;28;20501;-66
2023/03/09 04:46:02;;;;;;;5.05;0.55;;;29.10;42.00;;;;;;5026409;28;20034;-65
2023/03/09 04:48:30;;;;;;;2.40;0.80;;;29.20;41.70;;;;;;5031268;28;20021;-64
2023/03/09 04:50:57;;;;;;;1.50;0.43;;;29.30;41.60;;;;;;5029988;28;20022;-65
2023/03/09 04:53:24;;;;;;;1.60;0.50;;;29.40;41.60;;;;;;5033261;28;20034;-65
2023/03/09 04:55:52;;;;;;;2.80;0.60;;;29.60;42.70;;;;;;5030466;28;20022;-65
2023/03/09 04:58:19;;;;;;;4.28;0.60;;;29.70;41.30;;;;;;5026230;28;20471;-65
2023/03/09 05:00:47;;;;;;;3.70;0.50;;;29.80;40.40;;;;;;5030286;28;20021;-65
2023/03/09 05:03:14;;;;;;;2.55;0.40;;;29.60;40.90;;;;;;5035630;28;20080;-64
2023/03/09 05:05:42;;;;;;;1.08;0.40;;;29.70;41.50;;;;;;5026853;28;20080;-66
2023/03/09 05:08:09;;;;;;;3.13;0.60;;;29.60;40.80;;;;;;5025601;28;20109;-65
2023/03/09 05:10:37;;;;;;;2.13;0.47;;;29.40;40.80;;;;;;5041242;28;20108;-66
2023/03/09 05:13:04;;;;;;;2.88;0.60;;;29.30;40.90;;;;;;5033403;28;20034;-66
2023/03/09 05:15:32;;;;;;;1.38;0.52;;;29.20;40.90;;;;;;5029759;28;20017;-65
2023/03/09 05:17:59;;;;;;;7.97;1.40;;;29.30;40.90;;;;;;5027701;28;20025;-67
2023/03/09 05:20:27;;;;;;;1.10;0.50;;;29.30;42.00;;;;;;5028800;28;20018;-66
2023/03/09 05:22:55;;;;;;;5.68;1.02;;;29.40;42.00;;;;;;5045105;28;20029;-66
2023/03/09 05:25:22;;;;;;;3.38;0.90;;;29.30;45.10;;;;;;5026613;28;20026;-66
2023/03/09 05:27:50;;;;;;;9.40;1.25;;;29.10;47.10;;;;;;5035104;28;20504;-66
2023/03/09 05:30:19;;;;;;;4.63;1.10;;;28.70;48.50;;;;;;5028892;28;20025;-65
2023/03/09 05:32:49;;;;;;;6.85;1.15;;;28.00;49.30;;;;;;5027053;28;20433;-65
2023/03/09 05:35:20;;;;;;;5.25;1.13;;;27.90;50.20;;;;;;5025280;28;20091;-67
2023/03/09 05:37:48;;;;;;;8.95;1.05;;;27.60;50.90;;;;;;5024687;28;20025;-66
2023/03/09 05:40:18;;;;;;;5.28;1.10;;;27.30;51.00;;;;;;5031153;28;20025;-65
2023/03/09 05:42:47;;;;;;;5.43;0.90;;;27.00;52.20;;;;;;5027358;28;20024;-64
2023/03/09 05:45:15;;;;;;;9.23;1.73;;;26.90;52.60;;;;;;5026199;28;20079;-66
2023/03/09 05:47:42;;;;;;;2.28;0.40;;;26.80;52.70;;;;;;5030663;28;20055;-65
2023/03/09 05:50:10;;;;;;;5.93;0.80;;;26.70;52.60;;;;;;5025451;28;20096;-64
2023/03/09 05:52:38;;;;;;;10.05;1.55;;;26.60;52.30;;;;;;5024981;28;20034;-65
2023/03/09 05:55:06;;;;;;;2.50;0.98;;;26.40;53.40;;;;;;5026592;28;20448;-66
2023/03/09 05:57:33;;;;;;;4.57;0.98;;;26.20;53.70;;;;;;5026730;28;20543;-65
2023/03/09 06:00:01;;;;;;;5.75;0.70;;;26.20;53.90;;;;;;5023933;28;20501;-65
2023/03/09 06:02:28;;;;;;;7.90;1.17;;;26.00;54.40;;;;;;5026356;28;20487;-66
2023/03/09 06:04:56;;;;;;;5.75;0.98;;;26.00;54.70;;;;;;5023069;28;20049;-67
2023/03/09 06:07:23;;;;;;;5.82;1.55;;;26.00;54.30;;;;;;5028142;28;20025;-67
2023/03/09 06:09:51;;;;;;;3.13;1.00;;;25.80;54.80;;;;;;5043720;28;20105;-66
2023/03/09 06:12:24;;;;;;;2.53;0.90;;;25.70;54.90;;;;;;5038770;28;20557;-67
2023/03/09 06:14:52;;;;;;;5.03;1.30;;;25.60;55.40;;;;;;5034116;28;20029;-63
2023/03/09 06:17:20;;;;;;;6.53;1.10;;;25.60;55.60;;;;;;5019690;28;20030;-66
2023/03/09 06:19:52;;;;;;;3.63;1.08;;;25.50;55.40;;;;;;5037878;28;20501;-65
2023/03/09 06:22:20;;;;;;;3.63;0.95;;;25.40;55.70;;;;;;5030345;28;20022;-66
2023/03/09 06:24:47;;;;;;;4.80;1.08;;;25.30;55.50;;;;;;5029869;28;20482;-64
2023/03/09 06:27:14;;;;;;;4.78;0.80;;;25.20;56.00;;;;;;5031720;28;20038;-66
2023/03/09 06:29:42;;;;;;;5.20;1.00;;;25.20;55.40;;;;;;5030594;28;20381;-65
2023/03/09 06:32:12;;;;;;;6.20;1.15;;;25.00;55.90;;;;;;5031844;28;20548;-65
2023/03/09 06:34:39;;;;;;;4.20;0.93;;;25.10;56.20;;;;;;5032716;28;20482;-65
2023/03/09 06:37:07;;;;;;;5.97;1.83;;;25.10;55.90;;;;;;5040673;28;20536;-65
2023/03/09 06:39:35;;;;;;;3.47;1.00;;;24.90;56.00;;;;;;5034705;28;20041;-65
2023/03/09 06:42:05;;;;;;;4.80;0.88;;;25.00;57.00;;;;;;5039495;28;20768;-65
2023/03/09 06:44:33;;;;;;;3.95;1.02;;;24.90;55.90;;;;;;5040932;28;20029;-67
2023/03/09 06:47:00;;;;;;;6.78;1.20;;;24.90;56.00;;;;;;5030656;28;20017;-67
2023/03/09 06:49:28;;;;;;;6.50;1.23;;;24.80;56.10;;;;;;5048894;28;20034;-65
2023/03/09 06:51:57;;;;;;;4.00;0.77;;;24.80;55.50;;;;;;5034189;28;20036;-64
2023/03/09 06:54:24;;;;;;;7.68;1.00;;;24.70;55.50;;;;;;5028640;28;20068;-65
2023/03/09 06:56:56;;;;;;;5.22;0.80;;;24.60;55.30;;;;;;5024427;28;20025;-69
2023/03/09 06:59:23;;;;;;;4.55;0.88;;;24.50;55.20;;;;;;5031692;28;20429;-65
2023/03/09 07:01:51;;;;;;;4.40;0.80;;;24.50;55.40;;;;;;5033464;28;20068;-67
2023/03/09 07:04:18;;;;;;;3.00;0.73;;;24.30;55.40;;;;;;5031058;28;20481;-66
2023/03/09 07:06:46;;;;;;;2.67;0.63;;;24.30;55.60;;;;;;5037851;28;20100;-65
2023/03/09 07:09:13;;;;;;;4.50;0.93;;;24.30;56.30;;;;;;5030315;28;20228;-69
2023/03/09 07:11:40;;;;;;;3.30;0.75;;;24.30;56.70;;;;;;5030345;28;20036;-67
2023/03/09 07:14:11;;;;;;;2.70;0.80;;;24.20;55.90;;;;;;5031757;28;20029;-64
2023/03/09 07:16:38;;;;;;;2.17;0.68;;;24.10;55.70;;;;;;5029176;28;20041;-64
2023/03/09 07:19:06;;;;;;;5.43;1.00;;;24.00;55.80;;;;;;5021048;28;20034;-65
2023/03/09 07:21:33;;;;;;;3.45;0.75;;;24.00;55.90;;;;;;5023570;28;20500;-61
2023/03/09 07:24:01;;;;;;;3.95;1.08;;;23.90;56.20;;;;;;5024038;28;20053;-64
2023/03/09 07:26:28;;;;;;;1.80;0.75;;;23.80;56.30;;;;;;5024164;28;20035;-61
2023/03/09 07:28:55;;;;;;;3.88;1.33;;;23.70;57.20;;;;;;5023921;28;20075;-62
2023/03/09 07:31:23;;;;;;;6.38;0.93;;;23.60;57.30;;;;;;5033989;28;20029;-62
2023/03/09 07:33:51;;;;;;;6.10;0.98;;;23.60;57.60;;;;;;5027856;28;20025;-63
2023/03/09 07:36:18;;;;;;;3.40;0.80;;;23.50;57.80;;;;;;5027956;28;20048;-60
2023/03/09 07:38:47;;;;;;;2.47;0.80;;;23.40;58.10;;;;;;5025264;28;20091;-61
2023/03/09 07:41:15;;;;;;;3.58;0.82;;;23.40;58.20;;;;;;5024898;28;20026;-60
2023/03/09 07:43:45;;;;;;;5.85;1.90;;;23.30;58.50;;;;;;5032794;28;20033;-64
2023/03/09 07:46:15;;;;;;;4.43;0.90;;;23.30;58.90;;;;;;5024684;28;20450;-64
2023/03/09 07:48:44;;;;;;;1.08;0.52;;;23.20;58.70;;;;;;5030687;28;20022;-65
2023/03/09 07:51:15;;;;;;;4.85;0.90;;;23.10;59.00;;;;;;5036753;28;20030;-66
2023/03/09 07:53:43;;;;;;;2.88;0.93;;;23.00;59.60;;;;;;5023920;28;20556;-66
2023/03/09 07:56:10;;;;;;;1.92;0.60;;;22.90;59.40;;;;;;5018474;28;20021;-66
2023/03/09 07:58:42;;;;;;;3.08;1.33;;;22.90;59.30;;;;;;5022434;28;20087;-67
2023/03/09 08:01:18;;;;;;;3.05;1.08;;;22.80;59.40;;;;;;5028265;28;20068;-66
2023/03/09 08:03:46;;;;;;;2.70;0.90;;;22.70;59.40;;;;;;5023110;28;20053;-65
2023/03/09 08:06:14;;;;;;;3.55;1.33;;;22.60;59.50;;;;;;5027675;28;20295;-66
2023/03/09 08:08:42;;;;;;;2.88;0.80;;;22.50;59.00;;;;;;5026374;28;20033;-66
2023/03/09 08:11:10;;;;;;;2.97;0.70;;;22.40;59.20;;;;;;5024351;28;20036;-65
2023/03/09 08:13:38;;;;;;;5.03;0.98;;;22.30;59.90;;;;;;5023993;28;20033;-67
2023/03/09 08:16:08;;;;;;;3.33;0.60;;;22.30;59.60;;;;;;5027580;28;20562;-66
2023/03/09 08:18:36;;;;;;;1.98;0.60;;;22.20;60.00;;;;;;5024917;28;20037;-67
2023/03/09 08:21:04;;;;;;;5.50;0.95;;;22.10;60.70;;;;;;5028687;28;20206;-66
2023/03/09 08:23:34;;;;;;;3.08;0.80;;;22.10;61.60;;;;;;5024047;28;20026;-66
2023/03/09 08:26:02;;;;;;;4.85;0.75;;;22.00;62.40;;;;;;5022651;28;20026;-66
2023/03/09 08:28:33;;;;;;;4.70;0.70;;;21.90;63.30;;;;;;5029468;28;20039;-65
2023/03/09 08:31:00;;;;;;;4.53;0.80;;;21.80;64.20;;;;;;5030642;28;20108;-66
2023/03/09 08:33:28;;;;;;;2.95;0.80;;;21.70;65.30;;;;;;5028841;28;20079;-65
2023/03/09 08:35:58;;;;;;;3.35;1.02;;;21.60;66.10;;;;;;5024444;28;20494;-67
2023/03/09 08:38:28;;;;;;;3.35;0.90;;;21.50;67.30;;;;;;5031586;28;20045;-67
2023/03/09 08:40:58;;;;;;;3.53;0.90;;;21.40;67.60;;;;;;5023446;28;20034;-67
2023/03/09 08:43:25;;;;;;;4.78;0.73;;;21.30;68.90;;;;;;5030998;28;20033;-67
2023/03/09 08:45:53;;;;;;;9.68;1.10;;;21.20;69.80;;;;;;5024651;28;20034;-67
2023/03/09 08:48:20;;;;;;;5.30;1.00;;;21.10;70.60;;;;;;5030220;28;20462;-66
2023/03/09 08:50:48;;;;;;;3.90;0.82;;;21.10;71.90;;;;;;5024668;28;20403;-66
2023/03/09 08:53:18;;;;;;;6.20;1.00;;;20.90;73.10;;;;;;5032162;28;20175;-68
2023/03/09 08:55:45;;;;;;;6.30;0.93;;;20.70;74.50;;;;;;5023133;28;20036;-66
2023/03/09 08:58:19;;;;;;;4.38;0.93;;;20.70;75.60;;;;;;5023421;28;20055;-68
2023/03/09 09:00:53;;;;;;;5.57;0.82;;;20.60;76.30;;;;;;5025254;28;20048;-65
2023/03/09 09:03:20;;;;;;;4.85;0.90;;;20.50;77.40;;;;;;5027716;28;20688;-66
2023/03/09 09:05:51;;;;;;;2.20;0.80;;;20.30;80.10;;;;;;5036939;28;20052;-66
2023/03/09 09:08:19;;;;;;;6.45;0.65;;;20.30;81.40;;;;;;5024527;28;20453;-66
2023/03/09 09:10:46;;;;;;;7.15;1.08;;;20.20;82.60;;;;;;5025442;28;20379;-64
2023/03/09 09:13:14;;;;;;;4.50;1.42;;;20.10;84.90;;;;;;5026146;28;20164;-65
2023/03/09 09:15:41;;;;;;;2.83;1.08;;;20.00;87.40;;;;;;5032855;28;20029;-64
2023/03/09 09:18:09;;;;;;;4.18;1.00;;;19.80;88.90;;;;;;5023916;28;20021;-65
2023/03/09 09:20:37;;;;;;;5.40;0.90;;;19.70;90.20;;;;;;5033349;28;20709;-64
2023/03/09 09:23:06;;;;;;;3.10;0.95;;;19.60;91.80;;;;;;5027081;28;20025;-64
2023/03/09 09:25:34;;;;;;;7.57;2.67;;;19.60;92.60;;;;;;5025460;28;20045;-65
2023/03/09 09:28:02;;;;;;;0.68;0.38;;;19.40;93.20;;;;;;5024060;28;20500;-65
2023/03/09 09:30:31;;;;;;;2.28;0.82;;;19.40;93.80;;;;;;5021708;28;20022;-64
2023/03/09 09:33:00;;;;;;;4.60;1.02;;;19.20;94.70;;;;;;5027741;28;20021;-64
2023/03/09 09:35:31;;;;;;;5.05;0.80;;;19.10;95.30;;;;;;5038854;28;20382;-64
2023/03/09 09:37:59;;;;;;;4.43;0.90;;;19.00;95.70;;;;;;5025104;28;20792;-64
2023/03/09 09:40:27;;;;;;;4.43;1.10;;;18.90;96.50;;;;;;5035464;28;20110;-65
2023/03/09 09:42:56;;;;;;;3.80;0.80;;;18.70;97.10;;;;;;5030503;28;20167;-62
2023/03/09 09:45:26;;;;;;;6.47;1.30;;;18.70;98.10;;;;;;5028025;28;20666;-65
2023/03/09 09:48:00;;;;;;;4.03;1.58;;;18.50;98.70;;;;;;5018973;28;20188;-65
2023/03/09 09:50:59;;;;;;;9.45;1.45;;;18.40;99.70;;;;;;5022189;28;20044;-64
2023/03/09 09:53:29;;;;;;;3.72;0.95;;;18.30;99.50;;;;;;5021940;28;20037;-66
2023/03/09 09:56:00;;;;;;;8.95;1.70;;;18.20;99.90;;;;;;5031927;28;20064;-65
2023/03/09 09:58:30;;;;;;;5.60;1.20;;;18.20;99.90;;;;;;5028365;28;20059;-65
2023/03/09 10:01:01;;;;;;;5.95;1.58;;;18.10;99.90;;;;;;5021794;28;20450;-65
2023/03/09 10:03:34;;;;;;;6.30;1.25;;;18.00;99.90;;;;;;5022612;28;20048;-65
2023/03/09 10:06:17;;;;;;;3.22;0.98;;;17.90;99.90;;;;;;5024002;28;20104;-66
2023/03/09 10:09:05;;;;;;;7.13;1.35;;;17.90;99.90;;;;;;5023595;28;20033;-66
2023/03/09 10:11:45;;;;;;;6.20;1.02;;;17.80;99.90;;;;;;5019812;28;20113;-66
2023/03/09 10:14:28;;;;;;;5.38;1.00;;;17.70;99.90;;;;;;5024781;28;20029;-66
2023/03/09 10:17:07;;;;;;;5.18;1.33;;;17.60;99.90;;;;;;5029127;28;20530;-63
2023/03/09 10:19:38;;;;;;;8.82;2.00;;;17.50;99.90;;;;;;5025027;28;20128;-65
2023/03/09 10:22:16;;;;;;;4.95;1.25;;;17.40;99.90;;;;;;5018260;28;20029;-65
2023/03/09 10:24:46;;;;;;;8.57;1.25;;;17.30;99.90;;;;;;5027653;28;20163;-65
2023/03/09 10:27:23;;;;;;;5.32;1.90;;;17.20;99.90;;;;;;5024265;28;20091;-64
2023/03/09 10:29:53;;;;;;;6.43;1.35;;;17.10;99.90;;;;;;5022701;28;20129;-66
2023/03/09 10:32:40;;;;;;;3.72;0.90;;;17.10;99.90;;;;;;5022572;28;20080;-65
2023/03/09 10:35:33;;;;;;;5.50;0.95;;;17.00;99.90;;;;;;5022512;28;20116;-66
2023/03/09 10:38:00;;;;;;;6.97;0.95;;;17.00;99.90;;;;;;5020617;28;20034;-65
2023/03/09 10:40:42;;;;;;;2.00;0.88;;;17.00;99.90;;;;;;5024625;28;20467;-64
2023/03/09 10:43:30;;;;;;;4.28;2.03;;;16.90;99.90;;;;;;5023351;28;20040;-66
2023/03/09 10:46:24;;;;;;;4.75;1.15;;;17.00;99.90;;;;;;5015075;28;20116;-65
2023/03/09 10:49:15;;;;;;;6.47;1.10;;;16.90;99.90;;;;;;5024834;28;20045;-66
2023/03/09 10:51:53;;;;;;;4.93;0.98;;;17.00;99.90;;;;;;5026612;28;20021;-65
2023/03/09 10:54:36;;;;;;;3.30;1.08;;;16.90;99.90;;;;;;5022519;28;20022;-64
2023/03/09 10:57:22;;;;;;;3.45;0.80;;;16.90;99.90;;;;;;5021712;28;20029;-65
2023/03/09 11:00:06;;;;;;;5.53;1.00;;;16.80;99.90;;;;;;5030219;28;20071;-66
2023/03/09 11:02:37;;;;;;;4.43;1.45;;;16.80;99.90;;;;;;5020086;28;20037;-65
2023/03/09 11:05:22;;;;;;;3.30;1.15;;;16.80;99.90;;;;;;5021367;28;20050;-65
2023/03/09 11:07:55;;;;;;;3.95;1.10;;;16.80;99.90;;;;;;5022978;28;20497;-64
2023/03/09 11:10:31;;;;;;;9.77;1.80;;;16.80;99.90;;;;;;5019018;28;20045;-64
2023/03/09 11:13:00;;;;;;;8.38;1.30;;;16.90;99.90;;;;;;5028495;28;20112;-66
2023/03/09 11:15:32;;;;;;;4.38;1.88;;;17.00;99.90;;;;;;5025388;28;20025;-66
2023/03/09 11:18:02;;;;;;;4.40;1.70;;;17.10;99.90;;;;;;5026303;28;20438;-66
2023/03/09 11:20:35;;;;;;;6.88;1.38;;;17.10;99.90;;;;;;5030072;28;20101;-65
2023/03/09 11:23:20;;;;;;;3.83;1.20;;;17.10;99.90;;;;;;5025039;28;20034;-66
2023/03/09 11:26:20;;;;;;;5.68;1.27;;;17.20;99.90;;;;;;5019569;28;20788;-65
2023/03/09 11:29:02;;;;;;;8.25;1.38;;;17.10;99.90;;;;;;5023350;28;20474;-65
2023/03/09 11:31:39;;;;;;;4.43;1.40;;;17.10;99.90;;;;;;5030360;28;20037;-65
2023/03/09 11:34:16;;;;;;;6.35;1.48;;;17.10;99.90;;;;;;5024635;28;20108;-65
2023/03/09 11:36:56;;;;;;;5.30;1.30;;;17.00;99.90;;;;;;5023797;28;20116;-66
2023/03/09 11:39:35;;;;;;;6.93;1.20;;;16.90;99.90;;;;;;5031971;28;20076;-63
2023/03/09 11:42:15;;;;;;;7.43;1.58;;;16.90;99.90;;;;;;5023025;28;20078;-64
2023/03/09 11:44:45;;;;;;;4.95;1.50;;;16.80;99.90;;;;;;5015135;28;20033;-65
2023/03/09 11:47:56;;;;;;;7.35;1.92;;;16.80;99.90;;;;;;5019737;28;20080;-65
2023/03/09 11:50:27;;;;;;;7.43;1.55;;;16.70;99.90;;;;;;5009268;28;20124;-65
2023/03/09 11:53:06;;;;;;;7.25;1.50;;;16.60;99.90;;;;;;5035116;28;20033;-67
2023/03/09 11:55:43;;;;;;;5.97;1.45;;;16.60;99.90;;;;;;5025618;28;20010;-66
2023/03/09 11:58:20;;;;;;;5.82;1.30;;;16.60;99.90;;;;;;5027941;28;20025;-66
2023/03/09 12:00:52;;;;;;;7.35;1.95;;;16.60;99.90;;;;;;5019756;28;20037;-66
2023/03/09 12:03:19;;;;;;;6.28;1.77;;;16.50;99.90;;;;;;5026597;28;20025;-67
2023/03/09 12:06:29;;;;;;;10.52;1.70;;;16.50;99.90;;;;;;5025079;28;20620;-67
2023/03/09 12:09:00;;;;;;;10.05;3.10;;;16.50;99.90;;;;;;5040999;28;20363;-66
2023/03/09 12:11:53;;;;;;;5.85;1.80;;;16.50;99.90;;;;;;5033847;28;20509;-65
2023/03/09 12:14:30;;;;;;;8.10;2.50;;;16.50;99.90;;;;;;5028878;28;20037;-66
2023/03/09 12:17:03;;;;;;;8.13;2.10;;;16.50;99.90;;;;;;5033839;28;20028;-65
2023/03/09 12:19:35;;;;;;;5.80;1.70;;;16.40;99.90;;;;;;5023307;28;20474;-66
2023/03/09 12:22:22;;;;;;;7.50;1.85;;;16.30;99.90;;;;;;5035693;28;20025;-66
2023/03/09 12:25:02;;;;;;;14.85;2.20;;;16.30;99.90;;;;;;5034378;28;20493;-67
2023/03/09 12:27:33;;;;;;;19.00;2.33;;;16.40;99.90;;;;;;5035268;28;20028;-66
2023/03/09 12:30:18;;;;;;;10.68;2.35;;;16.40;99.90;;;;;;5022410;28;20030;-66
2023/03/09 12:32:45;;;;;;;19.85;2.40;;;16.50;99.90;;;;;;5019140;28;20025;-65
2023/03/09 12:35:42;;;;;;;7.88;1.90;;;16.50;99.90;;;;;;5026476;28;20784;-64
2023/03/09 12:38:19;;;;;;;11.82;1.77;;;16.50;99.90;;;;;;5032441;28;20041;-65
2023/03/09 12:40:47;;;;;;;14.68;1.92;;;16.50;99.90;;;;;;5028860;28;20132;-66
2023/03/09 12:43:14;;;;;;;11.32;1.95;;;16.50;99.90;;;;;;5030875;28;20109;-66
2023/03/09 12:45:49;;;;;;;17.17;1.92;;;16.50;99.90;;;;;;5028509;28;20509;-65
2023/03/09 12:48:33;;;;;;;7.05;2.47;;;16.50;99.90;;;;;;5013899;28;20063;-64
2023/03/09 12:51:09;;;;;;;10.85;1.88;;;16.50;99.90;;;;;;5029406;28;20131;-65
2023/03/09 12:54:08;;;;;;;8.43;1.70;;;16.50;99.90;;;;;;5031409;28;20021;-65
2023/03/09 12:56:37;;;;;;;8.82;2.38;;;16.60;99.90;;;;;;5023311;28;20030;-66
2023/03/09 12:59:12;;;;;;;6.82;1.70;;;16.50;99.90;;;;;;5029077;28;20041;-65
2023/03/09 13:01:39;;;;;;;8.48;1.88;;;16.50;99.90;;;;;;5027771;28;20533;-66
2023/03/09 13:04:24;;;;;;;7.30;1.60;;;16.50;99.90;;;;;;5032012;28;20049;-65
2023/03/09 13:07:02;;;;;;;3.30;1.55;;;16.50;99.90;;;;;;5020874;28;20513;-64